sensor_id;sensor_type;location;lat;lon;timestamp;temperature;humidity
19033;DHT22;9649;51.042;13.804;2022-07-29T00:00:37;18.20;99.90
19033;DHT22;9649;51.042;13.804;2022-07-29T00:05:40;18.20;99.90
19033;DHT22;9649;51.042;13.804;2022-07-29T00:10:47;18.10;99.90
19033;DHT22;9649;51.042;13.804;2022-07-29T00:15:54;17.90;99.90
19033;DHT22;9649;51.042;13.804;2022-07-29T00:21:07;17.60;1.00
19033;DHT22;9649;51.042;13.804;2022-07-29T00:26:13;17.40;1.00
19033;DHT22;9649;51.042;13.804;2022-07-29T00:31:17;17.60;1.00
19033;DHT22;9649;51.042;13.804;2022-07-29T00:36:20;17.50;1.00
19033;DHT22;9649;51.042;13.804;2022-07-29T00:41:23;17.30;1.00
19033;DHT22;9649;51.042;13.804;2022-07-29T00:46:27;17.20;1.00
19033;DHT22;9649;51.042;13.804;2022-07-29T00:51:30;17.10;77.40
19033;DHT22;9649;51.042;13.804;2022-07-29T00:56:34;17.00;99.90
19033;DHT22;9649;51.042;13.804;2022-07-29T01:01:38;16.90;1.00
19033;DHT22;9649;51.042;13.804;2022-07-29T01:06:42;16.90;1.00
19033;DHT22;9649;51.042;13.804;2022-07-29T01:11:46;16.90;1.00
19033;DHT22;9649;51.042;13.804;2022-07-29T01:16:54;16.70;1.00
19033;DHT22;9649;51.042;13.804;2022-07-29T01:22:18;16.60;99.90
19033;DHT22;9649;51.042;13.804;2022-07-29T01:27:38;16.40;1.00
19033;DHT22;9649;51.042;13.804;2022-07-29T01:32:47;16.70;99.90
19033;DHT22;9649;51.042;13.804;2022-07-29T01:38:05;16.70;99.90
19033;DHT22;9649;51.042;13.804;2022-07-29T01:43:14;16.50;1.00
19033;DHT22;9649;51.042;13.804;2022-07-29T01:48:22;16.20;88.60
19033;DHT22;9649;51.042;13.804;2022-07-29T01:53:30;16.00;1.00
19033;DHT22;9649;51.042;13.804;2022-07-29T01:58:40;16.00;1.00
19033;DHT22;9649;51.042;13.804;2022-07-29T02:03:45;16.00;1.00
19033;DHT22;9649;51.042;13.804;2022-07-29T02:08:50;16.20;1.00
19033;DHT22;9649;51.042;13.804;2022-07-29T02:13:55;16.20;1.00
19033;DHT22;9649;51.042;13.804;2022-07-29T02:19:01;16.10;36.90
19033;DHT22;9649;51.042;13.804;2022-07-29T02:24:05;16.10;1.00
19033;DHT22;9649;51.042;13.804;2022-07-29T02:29:09;16.10;1.00
19033;DHT22;9649;51.042;13.804;2022-07-29T02:34:15;16.10;1.00
19033;DHT22;9649;51.042;13.804;2022-07-29T02:39:21;15.90;99.90
19033;DHT22;9649;51.042;13.804;2022-07-29T02:44:26;16.00;99.90
19033;DHT22;9649;51.042;13.804;2022-07-29T02:49:37;16.10;1.00
19033;DHT22;9649;51.042;13.804;2022-07-29T02:54:44;16.10;1.00
19033;DHT22;9649;51.042;13.804;2022-07-29T02:59:48;16.10;1.00
19033;DHT22;9649;51.042;13.804;2022-07-29T03:04:54;16.00;1.00
19033;DHT22;9649;51.042;13.804;2022-07-29T03:09:59;16.00;1.00
19033;DHT22;9649;51.042;13.804;2022-07-29T03:15:02;16.10;1.00
19033;DHT22;9649;51.042;13.804;2022-07-29T03:20:08;16.20;1.00
19033;DHT22;9649;51.042;13.804;2022-07-29T03:25:12;16.10;1.00
19033;DHT22;9649;51.042;13.804;2022-07-29T03:30:16;16.00;99.90
19033;DHT22;9649;51.042;13.804;2022-07-29T03:35:24;16.00;99.90
19033;DHT22;9649;51.042;13.804;2022-07-29T03:40:32;16.00;99.90
19033;DHT22;9649;51.042;13.804;2022-07-29T03:45:36;16.00;99.90
19033;DHT22;9649;51.042;13.804;2022-07-29T03:50:41;15.80;1.00
19033;DHT22;9649;51.042;13.804;2022-07-29T03:55:48;15.80;1.00
19033;DHT22;9649;51.042;13.804;2022-07-29T04:00:51;15.60;99.90
19033;DHT22;9649;51.042;13.804;2022-07-29T04:06:00;15.60;99.90
19033;DHT22;9649;51.042;13.804;2022-07-29T04:11:04;15.70;41.40
19033;DHT22;9649;51.042;13.804;2022-07-29T04:16:07;15.80;1.00
19033;DHT22;9649;51.042;13.804;2022-07-29T04:21:11;15.90;1.00
19033;DHT22;9649;51.042;13.804;2022-07-29T04:26:14;16.00;1.00
19033;DHT22;9649;51.042;13.804;2022-07-29T04:31:17;16.20;99.90
19033;DHT22;9649;51.042;13.804;2022-07-29T04:36:27;16.40;99.90
19033;DHT22;9649;51.042;13.804;2022-07-29T04:41:30;16.60;1.00
19033;DHT22;9649;51.042;13.804;2022-07-29T04:46:35;16.90;1.00
19033;DHT22;9649;51.042;13.804;2022-07-29T04:51:39;17.10;99.90
19033;DHT22;9649;51.042;13.804;2022-07-29T04:56:42;17.20;99.90
19033;DHT22;9649;51.042;13.804;2022-07-29T05:01:44;17.20;1.00
19033;DHT22;9649;51.042;13.804;2022-07-29T05:06:49;17.40;1.00
19033;DHT22;9649;51.042;13.804;2022-07-29T05:11:52;17.60;1.00
19033;DHT22;9649;51.042;13.804;2022-07-29T05:16:54;17.90;99.90
19033;DHT22;9649;51.042;13.804;2022-07-29T05:21:59;18.00;1.00
19033;DHT22;9649;51.042;13.804;2022-07-29T05:27:02;18.20;1.00
19033;DHT22;9649;51.042;13.804;2022-07-29T05:32:06;18.40;1.00
19033;DHT22;9649;51.042;13.804;2022-07-29T05:37:10;18.70;1.00
19033;DHT22;9649;51.042;13.804;2022-07-29T05:42:14;19.30;99.90
19033;DHT22;9649;51.042;13.804;2022-07-29T05:47:17;19.80;1.00
19033;DHT22;9649;51.042;13.804;2022-07-29T05:52:22;20.00;1.00
19033;DHT22;9649;51.042;13.804;2022-07-29T05:57:24;20.20;1.00
19033;DHT22;9649;51.042;13.804;2022-07-29T06:02:27;20.40;1.00
19033;DHT22;9649;51.042;13.804;2022-07-29T06:07:31;20.60;99.90
19033;DHT22;9649;51.042;13.804;2022-07-29T06:12:36;20.60;99.90
19033;DHT22;9649;51.042;13.804;2022-07-29T06:17:39;20.80;99.90
19033;DHT22;9649;51.042;13.804;2022-07-29T06:23:02;21.10;99.90
19033;DHT22;9649;51.042;13.804;2022-07-29T06:28:06;21.30;99.90
19033;DHT22;9649;51.042;13.804;2022-07-29T06:33:09;21.60;55.70
19033;DHT22;9649;51.042;13.804;2022-07-29T06:38:13;21.60;1.00
19033;DHT22;9649;51.042;13.804;2022-07-29T06:43:34;21.80;1.00
19033;DHT22;9649;51.042;13.804;2022-07-29T06:48:53;22.00;1.00
19033;DHT22;9649;51.042;13.804;2022-07-29T06:53:57;22.20;1.00
19033;DHT22;9649;51.042;13.804;2022-07-29T06:59:20;22.60;1.00
19033;DHT22;9649;51.042;13.804;2022-07-29T07:04:34;23.00;1.00
19033;DHT22;9649;51.042;13.804;2022-07-29T07:09:38;23.30;1.00
19033;DHT22;9649;51.042;13.804;2022-07-29T07:14:41;23.70;1.00
19033;DHT22;9649;51.042;13.804;2022-07-29T07:19:44;24.20;1.00
19033;DHT22;9649;51.042;13.804;2022-07-29T07:24:49;25.00;1.00
19033;DHT22;9649;51.042;13.804;2022-07-29T07:29:51;25.50;1.00
19033;DHT22;9649;51.042;13.804;2022-07-29T07:34:54;25.60;1.00
19033;DHT22;9649;51.042;13.804;2022-07-29T07:39:58;25.70;1.00
19033;DHT22;9649;51.042;13.804;2022-07-29T07:45:01;26.00;1.00
19033;DHT22;9649;51.042;13.804;2022-07-29T07:50:14;26.60;1.00
19033;DHT22;9649;51.042;13.804;2022-07-29T07:55:21;27.10;1.00
19033;DHT22;9649;51.042;13.804;2022-07-29T08:00:24;27.80;1.00
19033;DHT22;9649;51.042;13.804;2022-07-29T08:05:27;28.60;1.00
19033;DHT22;9649;51.042;13.804;2022-07-29T08:10:31;28.30;1.00
19033;DHT22;9649;51.042;13.804;2022-07-29T08:15:52;28.60;1.00
19033;DHT22;9649;51.042;13.804;2022-07-29T08:21:00;29.70;99.90
19033;DHT22;9649;51.042;13.804;2022-07-29T08:26:04;30.60;99.90
19033;DHT22;9649;51.042;13.804;2022-07-29T08:31:07;31.00;99.90
19033;DHT22;9649;51.042;13.804;2022-07-29T08:36:10;31.10;99.90
19033;DHT22;9649;51.042;13.804;2022-07-29T08:41:15;31.50;99.90
19033;DHT22;9649;51.042;13.804;2022-07-29T08:46:21;31.70;99.90
19033;DHT22;9649;51.042;13.804;2022-07-29T08:51:25;32.50;99.90
19033;DHT22;9649;51.042;13.804;2022-07-29T08:56:30;33.00;99.90
19033;DHT22;9649;51.042;13.804;2022-07-29T09:01:36;33.30;99.90
19033;DHT22;9649;51.042;13.804;2022-07-29T09:06:44;33.40;99.90
19033;DHT22;9649;51.042;13.804;2022-07-29T09:11:49;35.00;99.90
19033;DHT22;9649;51.042;13.804;2022-07-29T09:16:53;34.90;99.90
19033;DHT22;9649;51.042;13.804;2022-07-29T09:21:59;33.40;99.90
19033;DHT22;9649;51.042;13.804;2022-07-29T09:27:10;32.90;99.90
19033;DHT22;9649;51.042;13.804;2022-07-29T09:32:13;32.60;99.90
19033;DHT22;9649;51.042;13.804;2022-07-29T09:37:26;33.80;99.90
19033;DHT22;9649;51.042;13.804;2022-07-29T09:42:30;36.60;99.90
19033;DHT22;9649;51.042;13.804;2022-07-29T09:47:41;37.40;99.90
19033;DHT22;9649;51.042;13.804;2022-07-29T09:52:48;37.40;99.90
19033;DHT22;9649;51.042;13.804;2022-07-29T09:57:53;35.90;99.90
19033;DHT22;9649;51.042;13.804;2022-07-29T10:08:30;36.30;99.90
19033;DHT22;9649;51.042;13.804;2022-07-29T10:13:48;39.30;99.90
19033;DHT22;9649;51.042;13.804;2022-07-29T10:18:53;41.30;99.90
19033;DHT22;9649;51.042;13.804;2022-07-29T10:23:57;43.30;99.90
19033;DHT22;9649;51.042;13.804;2022-07-29T10:29:03;46.90;99.90
19033;DHT22;9649;51.042;13.804;2022-07-29T10:34:13;45.30;99.90
19033;DHT22;9649;51.042;13.804;2022-07-29T10:39:29;46.40;99.90
19033;DHT22;9649;51.042;13.804;2022-07-29T10:44:52;40.40;99.90
19033;DHT22;9649;51.042;13.804;2022-07-29T10:49:57;36.80;99.90
19033;DHT22;9649;51.042;13.804;2022-07-29T10:55:03;36.60;99.90
19033;DHT22;9649;51.042;13.804;2022-07-29T11:00:29;36.10;99.90
19033;DHT22;9649;51.042;13.804;2022-07-29T11:05:51;35.10;99.90
19033;DHT22;9649;51.042;13.804;2022-07-29T11:11:31;36.30;99.90
19033;DHT22;9649;51.042;13.804;2022-07-29T11:16:58;35.20;99.90
19033;DHT22;9649;51.042;13.804;2022-07-29T11:22:03;38.70;99.90
19033;DHT22;9649;51.042;13.804;2022-07-29T11:27:14;40.20;99.90
19033;DHT22;9649;51.042;13.804;2022-07-29T11:32:22;43.40;99.90
19033;DHT22;9649;51.042;13.804;2022-07-29T11:37:29;41.70;99.90
19033;DHT22;9649;51.042;13.804;2022-07-29T11:42:46;41.50;99.90
19033;DHT22;9649;51.042;13.804;2022-07-29T11:47:55;44.00;99.90
19033;DHT22;9649;51.042;13.804;2022-07-29T11:53:20;43.80;99.90
19033;DHT22;9649;51.042;13.804;2022-07-29T11:58:24;44.10;99.90
19033;DHT22;9649;51.042;13.804;2022-07-29T12:03:29;43.40;99.90
19033;DHT22;9649;51.042;13.804;2022-07-29T12:08:40;43.80;99.90
19033;DHT22;9649;51.042;13.804;2022-07-29T12:13:44;41.30;99.90
19033;DHT22;9649;51.042;13.804;2022-07-29T12:18:58;39.50;99.90
19033;DHT22;9649;51.042;13.804;2022-07-29T12:24:03;41.20;99.90
19033;DHT22;9649;51.042;13.804;2022-07-29T12:29:15;40.80;99.90
19033;DHT22;9649;51.042;13.804;2022-07-29T12:34:35;39.60;99.90
19033;DHT22;9649;51.042;13.804;2022-07-29T12:39:38;39.20;99.90
19033;DHT22;9649;51.042;13.804;2022-07-29T12:44:46;38.30;99.90
19033;DHT22;9649;51.042;13.804;2022-07-29T12:49:52;38.90;99.90
19033;DHT22;9649;51.042;13.804;2022-07-29T12:55:09;37.80;99.90
19033;DHT22;9649;51.042;13.804;2022-07-29T13:00:13;35.50;99.90
19033;DHT22;9649;51.042;13.804;2022-07-29T13:05:18;34.60;99.90
19033;DHT22;9649;51.042;13.804;2022-07-29T13:10:21;35.30;99.90
19033;DHT22;9649;51.042;13.804;2022-07-29T13:15:25;35.90;99.90
19033;DHT22;9649;51.042;13.804;2022-07-29T13:20:29;35.20;99.90
19033;DHT22;9649;51.042;13.804;2022-07-29T13:25:34;36.40;99.90
19033;DHT22;9649;51.042;13.804;2022-07-29T13:30:42;37.60;99.90
19033;DHT22;9649;51.042;13.804;2022-07-29T13:35:47;37.20;99.90
19033;DHT22;9649;51.042;13.804;2022-07-29T13:40:49;37.30;99.90
19033;DHT22;9649;51.042;13.804;2022-07-29T13:45:52;36.20;99.90
19033;DHT22;9649;51.042;13.804;2022-07-29T13:50:56;34.90;99.90
19033;DHT22;9649;51.042;13.804;2022-07-29T13:55:59;35.00;99.90
19033;DHT22;9649;51.042;13.804;2022-07-29T14:01:02;35.00;99.90
19033;DHT22;9649;51.042;13.804;2022-07-29T14:06:06;33.70;99.90
19033;DHT22;9649;51.042;13.804;2022-07-29T14:11:09;34.30;99.90
19033;DHT22;9649;51.042;13.804;2022-07-29T14:16:12;35.70;99.90
19033;DHT22;9649;51.042;13.804;2022-07-29T14:21:16;35.70;99.90
19033;DHT22;9649;51.042;13.804;2022-07-29T14:26:20;36.50;99.90
19033;DHT22;9649;51.042;13.804;2022-07-29T14:31:24;37.10;99.90
19033;DHT22;9649;51.042;13.804;2022-07-29T14:36:29;39.00;99.90
19033;DHT22;9649;51.042;13.804;2022-07-29T14:41:31;41.20;99.90
19033;DHT22;9649;51.042;13.804;2022-07-29T14:46:34;39.10;99.90
19033;DHT22;9649;51.042;13.804;2022-07-29T14:51:38;38.20;99.90
19033;DHT22;9649;51.042;13.804;2022-07-29T14:56:41;39.70;99.90
19033;DHT22;9649;51.042;13.804;2022-07-29T15:01:47;40.20;99.90
19033;DHT22;9649;51.042;13.804;2022-07-29T15:06:52;41.90;99.90
19033;DHT22;9649;51.042;13.804;2022-07-29T15:11:56;43.50;99.90
19033;DHT22;9649;51.042;13.804;2022-07-29T15:16:59;43.50;99.90
19033;DHT22;9649;51.042;13.804;2022-07-29T15:22:06;41.40;99.90
19033;DHT22;9649;51.042;13.804;2022-07-29T15:27:09;41.10;99.90
19033;DHT22;9649;51.042;13.804;2022-07-29T15:32:15;38.20;99.90
19033;DHT22;9649;51.042;13.804;2022-07-29T15:37:19;35.90;99.90
19033;DHT22;9649;51.042;13.804;2022-07-29T15:42:22;35.00;99.90
19033;DHT22;9649;51.042;13.804;2022-07-29T15:47:25;34.10;99.90
19033;DHT22;9649;51.042;13.804;2022-07-29T15:52:29;33.60;99.90
19033;DHT22;9649;51.042;13.804;2022-07-29T15:57:32;33.70;99.90
19033;DHT22;9649;51.042;13.804;2022-07-29T16:02:35;33.20;99.90
19033;DHT22;9649;51.042;13.804;2022-07-29T16:07:39;32.60;99.90
19033;DHT22;9649;51.042;13.804;2022-07-29T16:12:42;32.40;99.90
19033;DHT22;9649;51.042;13.804;2022-07-29T16:17:45;32.00;99.90
19033;DHT22;9649;51.042;13.804;2022-07-29T16:22:49;31.80;99.90
19033;DHT22;9649;51.042;13.804;2022-07-29T16:27:51;31.50;99.90
19033;DHT22;9649;51.042;13.804;2022-07-29T16:33:00;31.30;99.90
19033;DHT22;9649;51.042;13.804;2022-07-29T16:38:09;31.10;99.90
19033;DHT22;9649;51.042;13.804;2022-07-29T16:43:12;30.70;99.90
19033;DHT22;9649;51.042;13.804;2022-07-29T16:48:15;30.40;99.90
19033;DHT22;9649;51.042;13.804;2022-07-29T16:53:20;30.10;99.90
19033;DHT22;9649;51.042;13.804;2022-07-29T16:58:28;29.90;99.90
19033;DHT22;9649;51.042;13.804;2022-07-29T17:03:31;29.80;99.90
19033;DHT22;9649;51.042;13.804;2022-07-29T17:08:35;29.70;99.90
19033;DHT22;9649;51.042;13.804;2022-07-29T17:13:38;29.90;99.90
19033;DHT22;9649;51.042;13.804;2022-07-29T17:18:41;29.90;99.90
19033;DHT22;9649;51.042;13.804;2022-07-29T17:23:45;29.90;99.90
19033;DHT22;9649;51.042;13.804;2022-07-29T17:28:47;29.70;99.90
19033;DHT22;9649;51.042;13.804;2022-07-29T17:33:50;29.60;99.90
19033;DHT22;9649;51.042;13.804;2022-07-29T17:39:02;29.40;99.90
19033;DHT22;9649;51.042;13.804;2022-07-29T17:44:05;29.10;99.90
19033;DHT22;9649;51.042;13.804;2022-07-29T17:49:08;28.80;99.90
19033;DHT22;9649;51.042;13.804;2022-07-29T17:54:12;28.60;99.90
19033;DHT22;9649;51.042;13.804;2022-07-29T17:59:15;28.40;99.90
19033;DHT22;9649;51.042;13.804;2022-07-29T18:04:18;28.20;99.90
19033;DHT22;9649;51.042;13.804;2022-07-29T18:09:22;28.10;99.90
19033;DHT22;9649;51.042;13.804;2022-07-29T18:14:25;27.90;99.90
19033;DHT22;9649;51.042;13.804;2022-07-29T18:19:28;27.60;99.90
19033;DHT22;9649;51.042;13.804;2022-07-29T18:24:32;27.50;99.90
19033;DHT22;9649;51.042;13.804;2022-07-29T18:29:36;27.30;99.90
19033;DHT22;9649;51.042;13.804;2022-07-29T18:34:39;27.10;99.90
19033;DHT22;9649;51.042;13.804;2022-07-29T18:39:43;26.90;99.90
19033;DHT22;9649;51.042;13.804;2022-07-29T18:44:45;26.70;99.90
19033;DHT22;9649;51.042;13.804;2022-07-29T18:49:49;26.50;99.90
19033;DHT22;9649;51.042;13.804;2022-07-29T18:54:53;26.20;99.90
19033;DHT22;9649;51.042;13.804;2022-07-29T18:59:56;26.00;99.90
19033;DHT22;9649;51.042;13.804;2022-07-29T19:04:59;25.80;99.90
19033;DHT22;9649;51.042;13.804;2022-07-29T19:10:04;25.80;99.90
19033;DHT22;9649;51.042;13.804;2022-07-29T19:15:08;25.70;99.90
19033;DHT22;9649;51.042;13.804;2022-07-29T19:20:11;25.60;99.90
19033;DHT22;9649;51.042;13.804;2022-07-29T19:25:16;25.40;99.90
19033;DHT22;9649;51.042;13.804;2022-07-29T19:30:20;25.40;99.90
19033;DHT22;9649;51.042;13.804;2022-07-29T19:35:23;25.40;99.90
19033;DHT22;9649;51.042;13.804;2022-07-29T19:40:27;25.40;99.90
19033;DHT22;9649;51.042;13.804;2022-07-29T19:45:31;25.40;99.90
19033;DHT22;9649;51.042;13.804;2022-07-29T19:50:34;25.40;1.00
19033;DHT22;9649;51.042;13.804;2022-07-29T19:55:38;25.40;1.00
19033;DHT22;9649;51.042;13.804;2022-07-29T20:00:42;25.30;1.00
19033;DHT22;9649;51.042;13.804;2022-07-29T20:05:45;25.30;1.00
19033;DHT22;9649;51.042;13.804;2022-07-29T20:10:52;25.20;1.00
19033;DHT22;9649;51.042;13.804;2022-07-29T20:15:56;25.10;1.00
19033;DHT22;9649;51.042;13.804;2022-07-29T20:20:59;25.10;1.00
19033;DHT22;9649;51.042;13.804;2022-07-29T20:26:06;25.00;1.00
19033;DHT22;9649;51.042;13.804;2022-07-29T20:31:10;24.90;1.00
19033;DHT22;9649;51.042;13.804;2022-07-29T20:36:15;24.90;1.00
19033;DHT22;9649;51.042;13.804;2022-07-29T20:41:20;24.80;1.00
19033;DHT22;9649;51.042;13.804;2022-07-29T20:46:22;24.70;1.00
19033;DHT22;9649;51.042;13.804;2022-07-29T20:51:25;24.50;1.00
19033;DHT22;9649;51.042;13.804;2022-07-29T20:56:29;24.40;1.00
19033;DHT22;9649;51.042;13.804;2022-07-29T21:01:32;24.10;1.00
19033;DHT22;9649;51.042;13.804;2022-07-29T21:06:35;24.10;1.00
19033;DHT22;9649;51.042;13.804;2022-07-29T21:11:39;23.90;1.00
19033;DHT22;9649;51.042;13.804;2022-07-29T21:16:45;24.00;1.00
19033;DHT22;9649;51.042;13.804;2022-07-29T21:21:48;23.70;76.10
19033;DHT22;9649;51.042;13.804;2022-07-29T21:26:52;23.70;99.90
19033;DHT22;9649;51.042;13.804;2022-07-29T21:32:22;23.70;99.90
19033;DHT22;9649;51.042;13.804;2022-07-29T21:37:30;23.60;99.90
19033;DHT22;9649;51.042;13.804;2022-07-29T21:42:34;23.70;99.90
19033;DHT22;9649;51.042;13.804;2022-07-29T21:47:38;23.60;99.90
19033;DHT22;9649;51.042;13.804;2022-07-29T21:52:40;23.50;99.90
19033;DHT22;9649;51.042;13.804;2022-07-29T21:57:44;23.50;1.00
19033;DHT22;9649;51.042;13.804;2022-07-29T22:02:47;23.50;1.00
19033;DHT22;9649;51.042;13.804;2022-07-29T22:07:50;23.60;1.00
19033;DHT22;9649;51.042;13.804;2022-07-29T22:12:59;23.60;1.00
19033;DHT22;9649;51.042;13.804;2022-07-29T22:18:02;23.50;1.00
19033;DHT22;9649;51.042;13.804;2022-07-29T22:23:05;23.30;1.00
19033;DHT22;9649;51.042;13.804;2022-07-29T22:28:10;23.20;1.00
19033;DHT22;9649;51.042;13.804;2022-07-29T22:33:13;23.10;1.00
19033;DHT22;9649;51.042;13.804;2022-07-29T22:38:19;23.10;1.00
19033;DHT22;9649;51.042;13.804;2022-07-29T22:43:23;23.10;1.00
19033;DHT22;9649;51.042;13.804;2022-07-29T22:48:26;23.10;1.00
19033;DHT22;9649;51.042;13.804;2022-07-29T22:53:28;23.20;1.00
19033;DHT22;9649;51.042;13.804;2022-07-29T22:58:32;23.10;1.00
19033;DHT22;9649;51.042;13.804;2022-07-29T23:03:35;23.00;1.00
19033;DHT22;9649;51.042;13.804;2022-07-29T23:08:38;23.00;99.90
19033;DHT22;9649;51.042;13.804;2022-07-29T23:13:43;22.90;99.90
19033;DHT22;9649;51.042;13.804;2022-07-29T23:18:45;22.90;99.90
19033;DHT22;9649;51.042;13.804;2022-07-29T23:23:48;22.80;99.90
19033;DHT22;9649;51.042;13.804;2022-07-29T23:28:52;22.70;1.00
19033;DHT22;9649;51.042;13.804;2022-07-29T23:33:55;22.80;1.00
19033;DHT22;9649;51.042;13.804;2022-07-29T23:38:58;22.70;1.00
19033;DHT22;9649;51.042;13.804;2022-07-29T23:44:02;22.70;1.00
19033;DHT22;9649;51.042;13.804;2022-07-29T23:49:05;22.60;1.00
19033;DHT22;9649;51.042;13.804;2022-07-29T23:54:08;22.80;99.90
19033;DHT22;9649;51.042;13.804;2022-07-29T23:59:12;22.70;99.90
